sensor_id;sensor_type;location;lat;lon;timestamp;pressure;altitude;pressure_sealevel;temperature;humidity
48089;BME280;33867;50.314;7.802;2023-01-26T00:03:22;101226.03;;;0.04;91.49
48089;BME280;33867;50.314;7.802;2023-01-26T00:06:41;101223.50;;;0.01;91.02
48089;BME280;33867;50.314;7.802;2023-01-26T00:10:00;101220.25;;;-0.07;90.81
48089;BME280;33867;50.314;7.802;2023-01-26T00:13:35;101231.16;;;-0.16;91.58
48089;BME280;33867;50.314;7.802;2023-01-26T00:17:02;101212.56;;;-0.15;91.72
48089;BME280;33867;50.314;7.802;2023-01-26T00:20:22;101199.34;;;-0.15;92.14
48089;BME280;33867;50.314;7.802;2023-01-26T00:23:41;101205.72;;;-0.20;91.96
48089;BME280;33867;50.314;7.802;2023-01-26T00:32:13;101208.41;;;0.03;91.74
48089;BME280;33867;50.314;7.802;2023-01-26T00:35:33;101198.09;;;-0.05;90.90
48089;BME280;33867;50.314;7.802;2023-01-26T00:38:55;101188.50;;;-0.07;91.05
48089;BME280;33867;50.314;7.802;2023-01-26T00:42:14;101195.06;;;0.06;91.14
48089;BME280;33867;50.314;7.802;2023-01-26T00:45:34;101193.41;;;0.04;91.09
48089;BME280;33867;50.314;7.802;2023-01-26T00:48:57;101194.59;;;0.18;90.85
48089;BME280;33867;50.314;7.802;2023-01-26T00:52:18;101186.31;;;0.04;90.79
48089;BME280;33867;50.314;7.802;2023-01-26T00:55:38;101183.53;;;-0.16;91.34
48089;BME280;33867;50.314;7.802;2023-01-26T00:58:58;101177.94;;;-0.32;91.24
48089;BME280;33867;50.314;7.802;2023-01-26T01:02:17;101176.19;;;-0.33;91.85
48089;BME280;33867;50.314;7.802;2023-01-26T01:05:36;101182.53;;;-0.64;91.43
48089;BME280;33867;50.314;7.802;2023-01-26T01:08:55;101178.34;;;-0.69;91.93
48089;BME280;33867;50.314;7.802;2023-01-26T01:12:15;101184.94;;;-0.56;92.21
48089;BME280;33867;50.314;7.802;2023-01-26T01:15:34;101186.53;;;-0.52;92.05
48089;BME280;33867;50.314;7.802;2023-01-26T01:18:54;101175.59;;;-0.66;91.24
48089;BME280;33867;50.314;7.802;2023-01-26T01:22:13;101182.97;;;-0.51;91.48
48089;BME280;33867;50.314;7.802;2023-01-26T01:25:34;101180.94;;;-0.43;91.46
48089;BME280;33867;50.314;7.802;2023-01-26T01:28:54;101170.38;;;-0.43;91.01
48089;BME280;33867;50.314;7.802;2023-01-26T01:32:14;101171.97;;;-0.39;91.13
48089;BME280;33867;50.314;7.802;2023-01-26T01:35:33;101171.22;;;-0.42;90.76
48089;BME280;33867;50.314;7.802;2023-01-26T01:38:57;101175.28;;;-0.57;90.38
48089;BME280;33867;50.314;7.802;2023-01-26T01:42:16;101173.56;;;-0.58;90.51
48089;BME280;33867;50.314;7.802;2023-01-26T01:45:40;101179.66;;;-0.56;90.56
48089;BME280;33867;50.314;7.802;2023-01-26T01:49:02;101180.56;;;-0.57;90.10
48089;BME280;33867;50.314;7.802;2023-01-26T01:52:28;101171.31;;;-0.70;89.48
48089;BME280;33867;50.314;7.802;2023-01-26T01:55:48;101173.25;;;-1.02;89.71
48089;BME280;33867;50.314;7.802;2023-01-26T01:59:08;101165.50;;;-1.08;89.73
48089;BME280;33867;50.314;7.802;2023-01-26T02:02:29;101171.38;;;-0.98;90.13
48089;BME280;33867;50.314;7.802;2023-01-26T02:09:30;101159.41;;;-0.83;89.52
48089;BME280;33867;50.314;7.802;2023-01-26T02:13:09;101157.88;;;-0.64;90.11
48089;BME280;33867;50.314;7.802;2023-01-26T02:16:32;101152.50;;;-0.88;87.65
48089;BME280;33867;50.314;7.802;2023-01-26T02:20:10;101136.03;;;-0.69;89.29
48089;BME280;33867;50.314;7.802;2023-01-26T02:27:29;101130.72;;;-0.94;88.96
48089;BME280;33867;50.314;7.802;2023-01-26T02:30:48;101138.44;;;-1.14;88.80
48089;BME280;33867;50.314;7.802;2023-01-26T02:34:07;101126.72;;;-1.06;89.88
48089;BME280;33867;50.314;7.802;2023-01-26T02:37:26;101125.75;;;-1.30;89.14
48089;BME280;33867;50.314;7.802;2023-01-26T02:41:00;101126.31;;;-0.94;89.69
48089;BME280;33867;50.314;7.802;2023-01-26T02:44:21;101123.00;;;-0.75;89.63
48089;BME280;33867;50.314;7.802;2023-01-26T02:47:40;101109.59;;;-0.69;89.23
48089;BME280;33867;50.314;7.802;2023-01-26T02:50:59;101105.72;;;-0.59;88.75
48089;BME280;33867;50.314;7.802;2023-01-26T02:54:18;101099.19;;;-0.50;89.22
48089;BME280;33867;50.314;7.802;2023-01-26T02:57:57;101100.06;;;-0.50;88.64
48089;BME280;33867;50.314;7.802;2023-01-26T03:01:16;101090.88;;;-0.40;88.46
48089;BME280;33867;50.314;7.802;2023-01-26T03:04:44;101091.22;;;-0.49;88.26
48089;BME280;33867;50.314;7.802;2023-01-26T03:08:03;101098.56;;;-0.57;88.31
48089;BME280;33867;50.314;7.802;2023-01-26T03:11:27;101094.78;;;-0.50;88.32
48089;BME280;33867;50.314;7.802;2023-01-26T03:14:59;101093.59;;;-0.41;88.51
48089;BME280;33867;50.314;7.802;2023-01-26T03:18:37;101090.47;;;-0.52;88.61
48089;BME280;33867;50.314;7.802;2023-01-26T03:22:15;101086.97;;;-0.53;88.43
48089;BME280;33867;50.314;7.802;2023-01-26T03:25:53;101085.78;;;-0.44;88.50
48089;BME280;33867;50.314;7.802;2023-01-26T03:29:32;101077.94;;;-0.47;87.99
48089;BME280;33867;50.314;7.802;2023-01-26T03:32:52;101077.03;;;-0.71;86.13
48089;BME280;33867;50.314;7.802;2023-01-26T03:36:11;101082.00;;;-0.62;88.00
48089;BME280;33867;50.314;7.802;2023-01-26T03:39:30;101086.41;;;-0.88;86.29
48089;BME280;33867;50.314;7.802;2023-01-26T03:43:10;101081.38;;;-1.20;86.71
48089;BME280;33867;50.314;7.802;2023-01-26T03:46:48;101080.06;;;-1.33;86.74
48089;BME280;33867;50.314;7.802;2023-01-26T03:50:26;101076.94;;;-1.20;87.66
48089;BME280;33867;50.314;7.802;2023-01-26T03:54:04;101067.66;;;-1.31;86.93
48089;BME280;33867;50.314;7.802;2023-01-26T03:57:42;101059.31;;;-1.19;87.57
48089;BME280;33867;50.314;7.802;2023-01-26T04:01:01;101060.28;;;-1.22;87.30
48089;BME280;33867;50.314;7.802;2023-01-26T04:04:21;101060.63;;;-1.32;87.03
48089;BME280;33867;50.314;7.802;2023-01-26T04:08:05;101061.16;;;-0.96;88.12
48089;BME280;33867;50.314;7.802;2023-01-26T04:11:49;101056.59;;;-0.66;86.97
48089;BME280;33867;50.314;7.802;2023-01-26T04:15:08;101057.97;;;-0.56;86.59
48089;BME280;33867;50.314;7.802;2023-01-26T04:18:46;101055.94;;;-0.73;87.03
48089;BME280;33867;50.314;7.802;2023-01-26T04:22:24;101058.53;;;-0.96;87.12
48089;BME280;33867;50.314;7.802;2023-01-26T04:25:43;101058.06;;;-0.82;87.93
48089;BME280;33867;50.314;7.802;2023-01-26T04:29:05;101057.00;;;-0.53;86.68
48089;BME280;33867;50.314;7.802;2023-01-26T04:32:28;101051.94;;;-0.36;86.47
48089;BME280;33867;50.314;7.802;2023-01-26T04:35:47;101039.00;;;-0.44;86.67
48089;BME280;33867;50.314;7.802;2023-01-26T04:39:07;101045.84;;;-0.38;86.93
48089;BME280;33867;50.314;7.802;2023-01-26T04:42:26;101042.63;;;-0.46;86.85
48089;BME280;33867;50.314;7.802;2023-01-26T04:46:00;101043.50;;;-0.46;86.93
48089;BME280;33867;50.314;7.802;2023-01-26T04:49:20;101047.16;;;-0.50;87.47
48089;BME280;33867;50.314;7.802;2023-01-26T04:52:39;101053.22;;;-0.71;87.06
48089;BME280;33867;50.314;7.802;2023-01-26T04:55:59;101048.97;;;-0.75;87.50
48089;BME280;33867;50.314;7.802;2023-01-26T04:59:18;101052.28;;;-0.69;87.47
48089;BME280;33867;50.314;7.802;2023-01-26T05:02:37;101042.66;;;-0.71;87.44
48089;BME280;33867;50.314;7.802;2023-01-26T05:05:58;101049.78;;;-0.73;87.92
48089;BME280;33867;50.314;7.802;2023-01-26T05:09:17;101056.00;;;-0.74;87.47
48089;BME280;33867;50.314;7.802;2023-01-26T05:12:38;101045.72;;;-0.82;87.52
48089;BME280;33867;50.314;7.802;2023-01-26T05:16:19;101045.78;;;-0.85;87.50
48089;BME280;33867;50.314;7.802;2023-01-26T05:19:55;101041.16;;;-0.78;87.92
48089;BME280;33867;50.314;7.802;2023-01-26T05:23:49;101042.16;;;-0.81;86.36
48089;BME280;33867;50.314;7.802;2023-01-26T05:27:20;101043.56;;;-0.72;87.35
48089;BME280;33867;50.314;7.802;2023-01-26T05:30:43;101041.22;;;-1.31;86.74
48089;BME280;33867;50.314;7.802;2023-01-26T05:34:02;101040.72;;;-1.16;87.73
48089;BME280;33867;50.314;7.802;2023-01-26T05:37:26;101047.06;;;-1.22;87.00
48089;BME280;33867;50.314;7.802;2023-01-26T05:40:46;101044.44;;;-1.48;86.74
48089;BME280;33867;50.314;7.802;2023-01-26T05:44:07;101053.22;;;-1.21;87.67
48089;BME280;33867;50.314;7.802;2023-01-26T05:47:34;101045.16;;;-0.92;87.29
48089;BME280;33867;50.314;7.802;2023-01-26T05:50:55;101037.28;;;-0.68;86.32
48089;BME280;33867;50.314;7.802;2023-01-26T05:54:15;101039.13;;;-0.70;86.40
48089;BME280;33867;50.314;7.802;2023-01-26T05:57:33;101044.03;;;-0.61;86.30
48089;BME280;33867;50.314;7.802;2023-01-26T06:01:03;101048.91;;;-0.74;86.58
48089;BME280;33867;50.314;7.802;2023-01-26T06:04:23;101038.66;;;-0.58;86.71
48089;BME280;33867;50.314;7.802;2023-01-26T06:07:45;101035.59;;;-0.71;86.80
48089;BME280;33867;50.314;7.802;2023-01-26T06:11:15;101039.75;;;-0.64;87.07
48089;BME280;33867;50.314;7.802;2023-01-26T06:14:47;101046.44;;;-0.78;87.03
48089;BME280;33867;50.314;7.802;2023-01-26T06:18:06;101051.75;;;-0.78;87.39
48089;BME280;33867;50.314;7.802;2023-01-26T06:21:25;101050.22;;;-1.10;86.67
48089;BME280;33867;50.314;7.802;2023-01-26T06:24:45;101055.41;;;-0.82;87.18
48089;BME280;33867;50.314;7.802;2023-01-26T06:28:07;101054.13;;;-0.71;86.81
48089;BME280;33867;50.314;7.802;2023-01-26T06:31:26;101067.38;;;-0.72;87.02
48089;BME280;33867;50.314;7.802;2023-01-26T06:34:48;101064.03;;;-0.77;86.38
48089;BME280;33867;50.314;7.802;2023-01-26T06:38:07;101068.59;;;-0.81;86.86
48089;BME280;33867;50.314;7.802;2023-01-26T06:41:27;101075.03;;;-0.90;87.12
48089;BME280;33867;50.314;7.802;2023-01-26T06:44:47;101074.66;;;-1.04;86.31
48089;BME280;33867;50.314;7.802;2023-01-26T06:48:06;101065.75;;;-1.01;87.33
48089;BME280;33867;50.314;7.802;2023-01-26T06:55:03;101065.00;;;-0.80;86.84
48089;BME280;33867;50.314;7.802;2023-01-26T06:58:46;101078.66;;;-0.92;86.70
48089;BME280;33867;50.314;7.802;2023-01-26T07:02:25;101082.47;;;-1.01;86.35
48089;BME280;33867;50.314;7.802;2023-01-26T07:05:44;101075.78;;;-1.11;86.32
48089;BME280;33867;50.314;7.802;2023-01-26T07:09:05;101084.75;;;-1.15;86.73
48089;BME280;33867;50.314;7.802;2023-01-26T07:12:24;101075.75;;;-1.36;86.75
48089;BME280;33867;50.314;7.802;2023-01-26T07:15:43;101084.41;;;-1.59;87.47
48089;BME280;33867;50.314;7.802;2023-01-26T07:19:02;101077.69;;;-1.41;87.46
48089;BME280;33867;50.314;7.802;2023-01-26T07:22:21;101086.75;;;-1.23;87.86
48089;BME280;33867;50.314;7.802;2023-01-26T07:25:42;101093.53;;;-1.14;87.29
48089;BME280;33867;50.314;7.802;2023-01-26T07:29:01;101097.47;;;-1.01;87.17
48089;BME280;33867;50.314;7.802;2023-01-26T07:32:20;101105.56;;;-1.06;87.02
48089;BME280;33867;50.314;7.802;2023-01-26T07:35:39;101111.97;;;-1.13;86.67
48089;BME280;33867;50.314;7.802;2023-01-26T07:38:58;101120.41;;;-1.28;85.65
48089;BME280;33867;50.314;7.802;2023-01-26T07:42:17;101119.50;;;-1.27;86.81
48089;BME280;33867;50.314;7.802;2023-01-26T07:45:49;101110.44;;;-0.94;86.64
48089;BME280;33867;50.314;7.802;2023-01-26T07:49:09;101116.22;;;-0.82;85.88
48089;BME280;33867;50.314;7.802;2023-01-26T07:52:29;101122.09;;;-0.74;85.29
48089;BME280;33867;50.314;7.802;2023-01-26T07:55:49;101117.44;;;-0.43;84.88
48089;BME280;33867;50.314;7.802;2023-01-26T07:59:09;101118.84;;;-0.33;84.36
48089;BME280;33867;50.314;7.802;2023-01-26T08:02:29;101126.19;;;-0.41;84.62
48089;BME280;33867;50.314;7.802;2023-01-26T08:05:51;101126.88;;;-0.36;84.51
48089;BME280;33867;50.314;7.802;2023-01-26T08:09:10;101121.31;;;-0.28;84.38
48089;BME280;33867;50.314;7.802;2023-01-26T08:12:29;101123.53;;;-0.41;84.82
48089;BME280;33867;50.314;7.802;2023-01-26T08:15:48;101120.69;;;-0.35;84.35
48089;BME280;33867;50.314;7.802;2023-01-26T08:19:07;101123.44;;;-0.38;84.53
48089;BME280;33867;50.314;7.802;2023-01-26T08:22:26;101126.66;;;-0.30;84.42
48089;BME280;33867;50.314;7.802;2023-01-26T08:25:46;101119.84;;;-0.12;83.77
48089;BME280;33867;50.314;7.802;2023-01-26T08:29:05;101124.44;;;-0.17;83.69
48089;BME280;33867;50.314;7.802;2023-01-26T08:32:24;101121.88;;;-0.43;82.52
48089;BME280;33867;50.314;7.802;2023-01-26T08:35:43;101116.06;;;-0.78;82.28
48089;BME280;33867;50.314;7.802;2023-01-26T08:39:02;101125.38;;;-0.93;85.36
48089;BME280;33867;50.314;7.802;2023-01-26T08:42:21;101138.72;;;-0.71;84.96
48089;BME280;33867;50.314;7.802;2023-01-26T08:45:41;101139.03;;;-0.80;84.16
48089;BME280;33867;50.314;7.802;2023-01-26T08:49:00;101140.47;;;-0.70;84.31
48089;BME280;33867;50.314;7.802;2023-01-26T08:52:19;101151.91;;;-0.69;84.33
48089;BME280;33867;50.314;7.802;2023-01-26T08:55:39;101150.63;;;-0.84;82.75
48089;BME280;33867;50.314;7.802;2023-01-26T08:58:58;101151.19;;;-0.74;83.00
48089;BME280;33867;50.314;7.802;2023-01-26T09:02:17;101134.38;;;-0.47;82.62
48089;BME280;33867;50.314;7.802;2023-01-26T09:05:38;101132.28;;;-0.39;81.48
48089;BME280;33867;50.314;7.802;2023-01-26T09:08:57;101133.31;;;-0.43;80.21
48089;BME280;33867;50.314;7.802;2023-01-26T09:12:16;101129.13;;;-0.25;80.67
48089;BME280;33867;50.314;7.802;2023-01-26T09:15:44;101129.31;;;-0.30;79.25
48089;BME280;33867;50.314;7.802;2023-01-26T09:19:08;101133.94;;;-0.35;79.25
48089;BME280;33867;50.314;7.802;2023-01-26T09:22:27;101129.66;;;0.08;79.96
48089;BME280;33867;50.314;7.802;2023-01-26T09:29:50;101136.81;;;0.06;79.38
48089;BME280;33867;50.314;7.802;2023-01-26T09:33:10;101129.50;;;0.13;79.71
48089;BME280;33867;50.314;7.802;2023-01-26T09:36:29;101130.34;;;0.37;79.95
48089;BME280;33867;50.314;7.802;2023-01-26T09:39:48;101142.25;;;0.48;78.33
48089;BME280;33867;50.314;7.802;2023-01-26T09:43:35;101140.81;;;0.40;77.96
48089;BME280;33867;50.314;7.802;2023-01-26T09:47:30;101135.03;;;0.52;76.92
48089;BME280;33867;50.314;7.802;2023-01-26T09:50:59;101138.25;;;0.60;76.32
48089;BME280;33867;50.314;7.802;2023-01-26T09:54:33;101137.00;;;0.69;76.07
48089;BME280;33867;50.314;7.802;2023-01-26T09:57:59;101134.69;;;0.83;77.99
48089;BME280;33867;50.314;7.802;2023-01-26T10:01:36;101125.03;;;0.80;77.04
48089;BME280;33867;50.314;7.802;2023-01-26T10:05:00;101129.03;;;0.69;77.35
48089;BME280;33867;50.314;7.802;2023-01-26T10:08:21;101128.75;;;0.09;76.99
48089;BME280;33867;50.314;7.802;2023-01-26T10:11:50;101126.06;;;-0.38;76.07
48089;BME280;33867;50.314;7.802;2023-01-26T10:15:35;101128.59;;;0.14;77.94
48089;BME280;33867;50.314;7.802;2023-01-26T10:19:03;101120.47;;;-0.05;76.11
48089;BME280;33867;50.314;7.802;2023-01-26T10:22:46;101124.03;;;-0.30;77.66
48089;BME280;33867;50.314;7.802;2023-01-26T10:26:12;101117.00;;;-0.31;77.13
48089;BME280;33867;50.314;7.802;2023-01-26T10:33:36;101122.25;;;0.18;78.02
48089;BME280;33867;50.314;7.802;2023-01-26T10:37:04;101113.16;;;0.02;77.35
48089;BME280;33867;50.314;7.802;2023-01-26T10:40:41;101111.72;;;-0.07;77.72
48089;BME280;33867;50.314;7.802;2023-01-26T10:47:32;101110.22;;;-0.14;77.30
48089;BME280;33867;50.314;7.802;2023-01-26T10:50:52;101110.72;;;-0.28;78.27
48089;BME280;33867;50.314;7.802;2023-01-26T10:57:37;101111.13;;;0.08;77.51
48089;BME280;33867;50.314;7.802;2023-01-26T11:01:06;101106.88;;;0.27;79.26
48089;BME280;33867;50.314;7.802;2023-01-26T11:04:29;101102.78;;;0.19;77.16
48089;BME280;33867;50.314;7.802;2023-01-26T11:07:51;101095.91;;;-0.09;76.69
48089;BME280;33867;50.314;7.802;2023-01-26T11:11:34;101087.91;;;-0.07;77.54
48089;BME280;33867;50.314;7.802;2023-01-26T11:15:03;101091.16;;;-0.01;78.86
48089;BME280;33867;50.314;7.802;2023-01-26T11:22:06;101077.03;;;0.66;78.67
48089;BME280;33867;50.314;7.802;2023-01-26T11:25:34;101076.97;;;0.68;78.36
48089;BME280;33867;50.314;7.802;2023-01-26T11:35:58;101072.91;;;0.59;79.08
48089;BME280;33867;50.314;7.802;2023-01-26T11:58:47;101033.56;;;0.70;78.29
48089;BME280;33867;50.314;7.802;2023-01-26T12:21:34;101012.38;;;0.50;78.87
48089;BME280;33867;50.314;7.802;2023-01-26T12:25:00;101010.56;;;0.50;79.12
48089;BME280;33867;50.314;7.802;2023-01-26T12:28:35;101004.16;;;0.34;79.29
48089;BME280;33867;50.314;7.802;2023-01-26T12:32:06;100990.97;;;0.54;80.12
48089;BME280;33867;50.314;7.802;2023-01-26T12:39:16;100970.69;;;0.94;79.75
48089;BME280;33867;50.314;7.802;2023-01-26T12:55:25;100959.22;;;0.94;80.33
48089;BME280;33867;50.314;7.802;2023-01-26T13:04:04;100949.66;;;1.10;80.54
48089;BME280;33867;50.314;7.802;2023-01-26T13:11:53;100951.53;;;1.27;80.58
48089;BME280;33867;50.314;7.802;2023-01-26T13:26:56;100943.03;;;1.20;81.54
48089;BME280;33867;50.314;7.802;2023-01-26T16:03:23;100991.56;;;1.02;85.03
48089;BME280;33867;50.314;7.802;2023-01-26T16:06:42;100992.72;;;0.96;85.33
48089;BME280;33867;50.314;7.802;2023-01-26T16:10:02;100999.59;;;1.00;84.99
48089;BME280;33867;50.314;7.802;2023-01-26T16:13:21;100985.88;;;0.70;85.90
48089;BME280;33867;50.314;7.802;2023-01-26T16:16:41;100978.44;;;0.78;86.26
48089;BME280;33867;50.314;7.802;2023-01-26T18:22:48;100993.41;;;0.59;89.61
48089;BME280;33867;50.314;7.802;2023-01-26T18:26:07;100997.25;;;0.52;90.17
48089;BME280;33867;50.314;7.802;2023-01-26T18:47:01;100996.75;;;0.64;89.75
48089;BME280;33867;50.314;7.802;2023-01-26T18:50:21;101006.56;;;0.62;90.52
48089;BME280;33867;50.314;7.802;2023-01-26T18:53:40;101002.97;;;0.63;90.57
48089;BME280;33867;50.314;7.802;2023-01-26T18:56:59;100996.59;;;0.67;90.70
48089;BME280;33867;50.314;7.802;2023-01-26T19:00:21;101004.63;;;0.66;90.37
48089;BME280;33867;50.314;7.802;2023-01-26T19:03:41;101005.00;;;0.56;90.78
48089;BME280;33867;50.314;7.802;2023-01-26T19:11:14;100993.03;;;0.68;90.64
48089;BME280;33867;50.314;7.802;2023-01-26T19:14:33;100994.81;;;0.68;90.41
48089;BME280;33867;50.314;7.802;2023-01-26T19:17:53;100994.94;;;0.65;90.43
48089;BME280;33867;50.314;7.802;2023-01-26T19:21:12;101003.88;;;0.82;90.12
48089;BME280;33867;50.314;7.802;2023-01-26T19:24:54;100994.88;;;0.66;90.92
48089;BME280;33867;50.314;7.802;2023-01-26T19:28:20;100995.22;;;0.79;90.49
48089;BME280;33867;50.314;7.802;2023-01-26T19:31:39;100991.72;;;0.78;91.11
48089;BME280;33867;50.314;7.802;2023-01-26T19:34:58;100994.50;;;0.75;90.85
48089;BME280;33867;50.314;7.802;2023-01-26T20:49:04;100985.63;;;0.76;91.57
48089;BME280;33867;50.314;7.802;2023-01-26T20:52:28;100980.03;;;0.82;91.45
48089;BME280;33867;50.314;7.802;2023-01-26T20:55:55;100978.59;;;0.75;91.26
48089;BME280;33867;50.314;7.802;2023-01-26T20:59:50;100973.16;;;0.78;91.07
48089;BME280;33867;50.314;7.802;2023-01-26T21:03:09;100970.78;;;0.72;91.43
48089;BME280;33867;50.314;7.802;2023-01-26T21:06:29;100971.28;;;0.80;91.35
48089;BME280;33867;50.314;7.802;2023-01-26T21:10:10;100969.31;;;0.85;91.24
48089;BME280;33867;50.314;7.802;2023-01-26T21:13:29;100963.75;;;0.71;91.84
48089;BME280;33867;50.314;7.802;2023-01-26T21:16:48;100962.41;;;0.81;91.44
48089;BME280;33867;50.314;7.802;2023-01-26T21:41:48;100938.22;;;0.89;92.02
48089;BME280;33867;50.314;7.802;2023-01-26T21:45:13;100934.78;;;0.87;92.14
48089;BME280;33867;50.314;7.802;2023-01-26T22:54:40;100915.97;;;1.12;92.62
48089;BME280;33867;50.314;7.802;2023-01-26T22:57:59;100917.19;;;1.05;91.30
48089;BME280;33867;50.314;7.802;2023-01-26T23:01:18;100915.19;;;1.10;92.19
48089;BME280;33867;50.314;7.802;2023-01-26T23:04:37;100913.66;;;1.04;91.97
48089;BME280;33867;50.314;7.802;2023-01-26T23:07:57;100914.41;;;1.08;91.76
48089;BME280;33867;50.314;7.802;2023-01-26T23:11:24;100907.00;;;0.96;92.94
48089;BME280;33867;50.314;7.802;2023-01-26T23:14:46;100915.88;;;0.95;94.47
48089;BME280;33867;50.314;7.802;2023-01-26T23:18:05;100907.66;;;1.01;93.62
48089;BME280;33867;50.314;7.802;2023-01-26T23:21:25;100902.53;;;0.77;95.08
48089;BME280;33867;50.314;7.802;2023-01-26T23:24:44;100906.09;;;0.76;95.54
48089;BME280;33867;50.314;7.802;2023-01-26T23:32:02;100892.53;;;1.03;93.44
48089;BME280;33867;50.314;7.802;2023-01-26T23:35:22;100889.09;;;1.01;92.73
48089;BME280;33867;50.314;7.802;2023-01-26T23:38:40;100895.25;;;1.01;92.79
48089;BME280;33867;50.314;7.802;2023-01-26T23:42:00;100885.66;;;0.99;92.34
48089;BME280;33867;50.314;7.802;2023-01-26T23:45:19;100894.16;;;1.05;92.62
48089;BME280;33867;50.314;7.802;2023-01-26T23:48:38;100891.47;;;1.07;92.49
48089;BME280;33867;50.314;7.802;2023-01-26T23:51:57;100892.91;;;1.14;91.96
48089;BME280;33867;50.314;7.802;2023-01-26T23:55:16;100892.94;;;0.94;93.59
